Portada
METAR-TAF:

METAR-TAF

Aeropuertos :

Aeropuerto Internacional Lanseria

Lanseria, Sudáfrica

latitud: 25-56S, longitud: 027-56E, altitud: 1377 m

Observación

El informe se hizo hace 35 minutos, a las 21:00 UTC
Viento 7 kt del sur
Temperatura 6°C
Humedad 45%
Presión 1022 hPa

METAR: FALA 262100Z AUTO 17007KT //// // ////// 06/M05 Q1022

Hora: 23:35 (21:35 UTC)

Pronóstico

El informe se hizo hace 5 horas y 35 minutos, a las 16:00 UTC
Pronóstico válido del 26 a las 18 UTC al 27 a las 18 UTC
Viento 11 kt del sur-suroeste
Visibilidad 10 km o más
sin nubes por debajo de 1500 m y sin presencia de cumulonimbus.
Evolucionando progresivamente
del 27 a las 09 UTC al 27 a las 11 UTC
Viento 3 kt con dirección variable

TAF: FALA 261600Z 2618/2718 20011KT CAVOK TX14/2712Z TN01/2705Z BECMG 2709/2711 VRB03KT

Observaciones y pronósticos meteorológicos de más de 4000 aeropuertos (mensajes METAR y TAF).

Los puntos amarillos y rojos representan las estaciones disponibles.

Ponga el ratón en el punto deseado para ver el nombre de la estación.

Haga clic para ver las observaciones y los pronósticos meteorológicos.

Para cambiar el mapa : haga clic en los botones verdes con una cruz de color negro para hacer un zoom, en el botón verde con un guión para alejar o en las flechas verdes para mapas adyacentes.


METAR-TAF: